Time;durP1;ratioP1;P1;durP2;ratioP2;P2;SDS_P1;SDS_P2;PMS_P1;PMS_P2;Temp;Humidity;BMP_temperature;BMP_pressure;BME280_temperature;BME280_humidity;BME280_pressure;Samples;Min_cycle;Max_cycle;Signal;HPM_P1;HPM_P2
2022/03/06 00:00:17;;;;;;;44.47;24.13;;;;;;;4.29;86.67;99698.88;3142455;28;20048;-74
2022/03/06 00:01:49;;;;;;;47.53;24.30;;;;;;;4.31;86.60;99684.22;3148606;28;20091;-74
2022/03/06 00:03:23;;;;;;;43.45;23.10;;;;;;;4.31;86.56;99694.53;3146804;28;20215;-74
2022/03/06 00:04:54;;;;;;;;;;;;;;;4.16;86.69;99686.28;3138298;28;20054;-74
2022/03/06 00:06:27;;;;;;;43.25;21.55;;;;;;;4.17;87.05;99687.97;3142629;28;20445;-73
2022/03/06 00:07:59;;;;;;;43.03;23.25;;;;;;;4.21;86.95;99687.03;3143396;28;20052;-73
2022/03/06 00:09:31;;;;;;;50.30;26.27;;;;;;;4.27;86.83;99687.75;3137034;28;20053;-74
2022/03/06 00:11:04;;;;;;;58.42;27.15;;;;;;;3.95;86.67;99630.88;3145345;28;20269;-74
2022/03/06 00:12:35;;;;;;;50.65;25.67;;;;;;;4.24;86.50;99666.34;3142647;28;20040;-72
2022/03/06 00:14:07;;;;;;;48.42;24.90;;;;;;;4.33;86.35;99676.47;3148307;28;20090;-73
2022/03/06 00:15:39;;;;;;;49.50;23.63;;;;;;;4.27;86.17;99659.38;3144189;28;20060;-73
2022/03/06 00:17:11;;;;;;;50.25;27.42;;;;;;;4.30;86.26;99681.69;3137842;28;20056;-73
2022/03/06 00:18:44;;;;;;;44.22;24.58;;;;;;;4.27;86.45;99679.16;3145899;28;20535;-73
2022/03/06 00:20:17;;;;;;;51.92;27.40;;;;;;;4.24;86.49;99685.22;3140430;28;20056;-72
2022/03/06 00:21:49;;;;;;;49.47;26.63;;;;;;;4.24;86.52;99669.75;3141266;28;20048;-73
2022/03/06 00:23:21;;;;;;;51.03;26.75;;;;;;;4.26;86.45;99675.75;3145781;28;20620;-74
2022/03/06 00:24:56;;;;;;;47.20;25.58;;;;;;;4.28;86.59;99673.13;3136512;28;20062;-74
2022/03/06 00:26:28;;;;;;;48.83;25.70;;;;;;;4.28;86.37;99679.13;3144386;28;20045;-74
2022/03/06 00:28:00;;;;;;;45.90;25.35;;;;;;;4.26;86.52;99675.75;3141272;28;20055;-74
2022/03/06 00:29:32;;;;;;;50.03;26.42;;;;;;;4.27;86.40;99681.75;3148415;28;20082;-74
2022/03/06 00:31:05;;;;;;;50.15;24.67;;;;;;;4.28;86.72;99688.59;3145110;28;20068;-73
2022/03/06 00:32:35;;;;;;;48.50;25.10;;;;;;;4.23;86.40;99674.94;3148997;28;20055;-74
2022/03/06 00:34:09;;;;;;;48.33;25.55;;;;;;;4.25;86.45;99694.66;3147234;28;20477;-74
2022/03/06 00:35:40;;;;;;;;;;;;;;;4.10;86.45;99682.09;3145759;28;20056;-74
2022/03/06 00:37:12;;;;;;;41.95;21.83;;;;;;;4.12;86.77;99680.34;3148744;28;19924;-74
2022/03/06 00:38:45;;;;;;;42.72;23.52;;;;;;;4.14;86.55;99677.72;3147724;28;20048;-73
2022/03/06 00:40:17;;;;;;;45.25;24.17;;;;;;;4.17;86.49;99677.66;3137250;28;20125;-74
2022/03/06 00:41:49;;;;;;;40.67;19.85;;;;;;;4.15;86.59;99671.69;3142570;28;20047;-73
2022/03/06 00:43:20;;;;;;;42.47;23.48;;;;;;;4.12;86.66;99662.31;3141763;28;20084;-73
2022/03/06 00:44:52;;;;;;;43.47;23.85;;;;;;;4.15;86.67;99682.00;3157333;28;20047;-73
2022/03/06 00:46:24;;;;;;;41.00;22.98;;;;;;;4.08;86.66;99669.25;3154661;28;20082;-74
2022/03/06 00:47:56;;;;;;;45.50;25.17;;;;;;;4.12;86.66;99676.91;3146283;28;20118;-73
2022/03/06 00:49:29;;;;;;;42.22;22.75;;;;;;;4.10;86.71;99670.03;3155591;28;20560;-73
2022/03/06 00:51:01;;;;;;;40.53;23.13;;;;;;;4.09;86.62;99670.94;3158129;28;20160;-74
2022/03/06 00:52:33;;;;;;;43.15;23.52;;;;;;;4.09;86.74;99673.50;3157170;28;20045;-73
2022/03/06 00:54:05;;;;;;;44.78;24.85;;;;;;;4.08;86.75;99665.81;3155696;28;20047;-73
2022/03/06 00:55:38;;;;;;;53.55;26.40;;;;;;;4.06;86.89;99676.16;3155701;28;20048;-73
2022/03/06 00:57:10;;;;;;;45.70;24.38;;;;;;;4.04;86.85;99675.34;3156224;28;20043;-73
2022/03/06 00:58:43;;;;;;;48.35;24.42;;;;;;;3.74;86.85;99620.13;3151321;28;20045;-73
2022/03/06 01:00:16;;;;;;;46.75;25.17;;;;;;;4.05;87.00;99673.59;3156884;28;20123;-74
2022/03/06 01:01:48;;;;;;;47.45;26.50;;;;;;;4.04;86.83;99656.44;3154993;28;20113;-73
2022/03/06 01:03:21;;;;;;;41.55;22.17;;;;;;;4.09;86.91;99662.38;3146305;28;20113;-73
2022/03/06 01:04:55;;;;;;;42.30;21.95;;;;;;;4.07;86.85;99667.53;3152589;28;20052;-73
2022/03/06 01:06:27;;;;;;;37.92;19.17;;;;;;;4.02;86.90;99677.13;3151337;28;20082;-73
2022/03/06 01:07:58;;;;;;;45.75;24.70;;;;;;;4.02;86.82;99651.34;3147727;28;20051;-74
2022/03/06 01:09:30;;;;;;;43.30;23.20;;;;;;;4.08;86.62;99669.25;3156625;28;20067;-73
2022/03/06 01:11:03;;;;;;;43.72;23.65;;;;;;;3.94;86.59;99642.06;3146115;28;20056;-73
2022/03/06 01:12:35;;;;;;;43.53;24.50;;;;;;;4.04;86.76;99652.13;3152830;28;20071;-73
2022/03/06 01:14:07;;;;;;;44.38;23.25;;;;;;;4.04;86.67;99664.19;3151692;28;20106;-73
2022/03/06 01:15:39;;;;;;;42.83;24.83;;;;;;;4.00;86.66;99655.66;3155202;28;20067;-73
2022/03/06 01:17:11;;;;;;;45.28;25.08;;;;;;;4.02;86.89;99665.94;3157013;28;20117;-73
2022/03/06 01:18:42;;;;;;;48.33;25.65;;;;;;;4.04;86.84;99659.88;3146129;28;20049;-73
2022/03/06 01:20:17;;;;;;;43.20;22.40;;;;;;;4.02;86.69;99661.66;3150549;28;20077;-72
2022/03/06 01:21:50;;;;;;;34.03;18.63;;;;;;;3.99;86.48;99664.25;3151311;28;20072;-73
2022/03/06 01:23:22;;;;;;;41.17;22.33;;;;;;;3.75;86.44;99626.97;3146995;28;20056;-73
2022/03/06 01:24:54;;;;;;;42.58;23.30;;;;;;;3.86;86.82;99655.09;3155244;28;20116;-73
2022/03/06 01:26:25;;;;;;;47.17;26.73;;;;;;;3.92;86.89;99649.81;3151092;28;20052;-73
2022/03/06 01:27:57;;;;;;;49.85;25.58;;;;;;;3.98;86.87;99654.00;3161822;28;20048;-72
2022/03/06 01:29:29;;;;;;;39.95;21.48;;;;;;;3.91;86.83;99648.13;3151936;28;20048;-72
2022/03/06 01:31:01;;;;;;;43.15;24.58;;;;;;;3.90;86.78;99645.56;3157124;28;20055;-72
2022/03/06 01:32:33;;;;;;;52.88;24.73;;;;;;;3.84;86.27;99624.22;3156917;28;20048;-72
2022/03/06 01:34:05;;;;;;;43.53;22.40;;;;;;;3.92;86.35;99670.44;3151659;28;20601;-72
2022/03/06 01:35:38;;;;;;;42.45;22.75;;;;;;;3.88;86.38;99648.19;3163004;28;20047;-73
2022/03/06 01:37:10;;;;;;;45.63;23.13;;;;;;;3.91;86.34;99645.56;3152999;28;20040;-72
2022/03/06 01:38:41;;;;;;;43.10;24.27;;;;;;;3.95;86.37;99664.38;3145694;28;20500;-71
2022/03/06 01:40:14;;;;;;;40.42;21.33;;;;;;;3.87;86.16;99643.91;3154979;28;20048;-71
2022/03/06 01:41:46;;;;;;;45.58;24.13;;;;;;;3.90;86.27;99645.56;3148131;28;20063;-70
2022/03/06 01:43:17;;;;;;;46.83;25.98;;;;;;;3.97;86.32;99647.16;3148968;28;20056;-70
2022/03/06 01:44:51;;;;;;;42.40;23.98;;;;;;;3.98;86.17;99648.84;3153442;28;20057;-70
2022/03/06 01:46:22;;;;;;;44.50;24.77;;;;;;;3.83;86.08;99630.25;3155053;28;20142;-71
2022/03/06 01:47:55;;;;;;;43.85;24.15;;;;;;;3.83;85.93;99663.72;3154776;28;20039;-70
2022/03/06 01:49:30;;;;;;;43.60;23.60;;;;;;;3.88;85.80;99638.75;3148847;28;20044;-70
2022/03/06 01:51:04;;;;;;;42.83;23.63;;;;;;;3.89;85.83;99644.72;3153093;28;20429;-70
2022/03/06 01:52:36;;;;;;;47.17;24.55;;;;;;;3.86;85.94;99649.94;3153501;28;20623;-71
2022/03/06 01:54:08;;;;;;;43.85;23.33;;;;;;;3.72;85.77;99621.88;3158097;28;20071;-70
2022/03/06 01:55:42;;;;;;;46.55;24.92;;;;;;;3.91;85.85;99655.03;3156274;28;20048;-71
2022/03/06 01:57:14;;;;;;;44.38;22.83;;;;;;;3.90;86.03;99654.16;3155560;28;20562;-70
2022/03/06 01:58:47;;;;;;;41.42;21.63;;;;;;;3.88;85.72;99653.34;3156376;28;20048;-70
2022/03/06 02:00:23;;;;;;;40.15;23.75;;;;;;;3.71;85.78;99624.50;3155084;28;20362;-72
2022/03/06 02:01:55;;;;;;;41.35;23.35;;;;;;;3.84;85.96;99646.53;3151302;28;20559;-72
2022/03/06 02:03:27;;;;;;;44.60;24.15;;;;;;;3.80;85.83;99637.19;3154510;28;20048;-72
2022/03/06 02:05:00;;;;;;;41.60;23.48;;;;;;;3.83;85.76;99631.97;3149211;28;20106;-72
2022/03/06 02:06:37;;;;;;;37.50;20.63;;;;;;;3.86;85.57;99642.22;3148506;28;20497;-71
2022/03/06 02:08:09;;;;;;;39.60;23.35;;;;;;;3.88;85.72;99654.19;3153616;28;20052;-72
2022/03/06 02:09:41;;;;;;;40.70;21.63;;;;;;;3.83;85.48;99653.44;3145459;28;20106;-72
2022/03/06 02:11:13;;;;;;;41.40;22.15;;;;;;;3.78;85.57;99641.53;3153008;28;20048;-72
2022/03/06 02:12:44;;;;;;;39.72;22.58;;;;;;;3.83;85.55;99655.16;3157152;28;20102;-72
2022/03/06 02:14:16;;;;;;;40.08;20.27;;;;;;;3.79;85.62;99664.69;3156430;28;20043;-72
2022/03/06 02:15:49;;;;;;;43.70;22.45;;;;;;;3.76;85.56;99654.44;3154677;28;20058;-74
2022/03/06 02:17:20;;;;;;;36.42;20.08;;;;;;;3.71;85.47;99656.25;3149377;28;20056;-74
2022/03/06 02:18:52;;;;;;;36.60;20.92;;;;;;;3.47;85.42;99620.69;3154639;28;20119;-73
2022/03/06 02:20:25;;;;;;;41.13;21.52;;;;;;;3.67;85.62;99658.91;3162825;28;20039;-73
2022/03/06 02:21:59;;;;;;;36.08;20.80;;;;;;;3.65;85.55;99656.38;3167580;28;20092;-73
2022/03/06 02:23:32;;;;;;;37.65;21.15;;;;;;;3.64;85.55;99644.38;3156275;28;20105;-74
2022/03/06 02:25:04;;;;;;;;;;;;;;;3.52;85.47;99654.91;3145779;28;20060;-74
2022/03/06 02:26:39;;;;;;;35.05;19.50;;;;;;;3.55;85.84;99659.97;3151292;28;19927;-73
2022/03/06 02:28:12;;;;;;;35.00;19.30;;;;;;;3.56;85.77;99664.28;3155420;28;20048;-73
2022/03/06 02:29:43;;;;;;;34.42;19.13;;;;;;;3.55;85.54;99659.97;3156928;28;20055;-73
2022/03/06 02:31:15;;;;;;;37.47;17.95;;;;;;;3.46;85.48;99644.72;3156236;28;20086;-74
2022/03/06 02:32:49;;;;;;;41.08;21.00;;;;;;;3.52;85.37;99648.03;3151297;28;20056;-72
2022/03/06 02:34:21;;;;;;;38.60;21.30;;;;;;;3.56;85.59;99656.56;3154870;28;20437;-73
2022/03/06 02:35:53;;;;;;;35.80;20.23;;;;;;;3.59;85.48;99646.19;3151307;28;20106;-74
2022/03/06 02:37:27;;;;;;;37.70;20.42;;;;;;;3.61;85.45;99658.16;3147246;28;20395;-73
2022/03/06 02:38:59;;;;;;;37.55;20.80;;;;;;;3.57;85.26;99656.50;3154205;28;20123;-73
2022/03/06 02:40:37;;;;;;;39.83;21.35;;;;;;;3.58;85.35;99658.22;3145593;28;20460;-73
2022/03/06 02:42:09;;;;;;;40.90;22.08;;;;;;;3.54;85.32;99660.88;3150519;28;20048;-73
2022/03/06 02:43:41;;;;;;;36.88;20.20;;;;;;;3.54;85.23;99658.28;3149993;28;20091;-73
2022/03/06 02:45:15;;;;;;;39.03;20.15;;;;;;;3.46;85.14;99649.88;3145638;28;20044;-73
2022/03/06 02:46:47;;;;;;;33.92;18.58;;;;;;;3.47;85.06;99660.16;3154966;28;20051;-73
2022/03/06 02:48:19;;;;;;;29.05;16.10;;;;;;;3.32;84.89;99656.13;3147128;28;20052;-73
2022/03/06 02:49:51;;;;;;;34.00;18.15;;;;;;;3.34;85.26;99662.09;3155599;28;20062;-73
2022/03/06 02:51:23;;;;;;;36.25;18.88;;;;;;;3.28;85.14;99669.91;3156286;28;20162;-73
2022/03/06 02:52:57;;;;;;;31.20;17.17;;;;;;;3.22;85.69;99669.16;3157383;28;20052;-73
2022/03/06 02:54:29;;;;;;;34.88;18.08;;;;;;;3.18;85.75;99666.66;3154358;28;20048;-73
2022/03/06 02:56:02;;;;;;;32.20;18.83;;;;;;;3.18;86.01;99668.38;3150531;28;20101;-73
2022/03/06 02:57:33;;;;;;;30.90;17.05;;;;;;;3.15;86.19;99673.59;3148351;28;20134;-73
2022/03/06 02:59:05;;;;;;;31.15;15.88;;;;;;;3.13;86.38;99665.03;3151474;28;20040;-73
2022/03/06 03:00:38;;;;;;;32.53;17.40;;;;;;;3.12;86.13;99665.91;3144939;28;20044;-73
2022/03/06 03:02:09;;;;;;;34.22;19.17;;;;;;;3.16;86.13;99672.69;3153586;28;20043;-73
2022/03/06 03:03:44;;;;;;;39.95;18.92;;;;;;;3.20;86.30;99674.38;3149755;28;20049;-73
2022/03/06 03:05:16;;;;;;;40.08;19.77;;;;;;;3.18;86.18;99676.94;3155545;28;20056;-72
2022/03/06 03:06:50;;;;;;;32.70;16.42;;;;;;;3.16;86.19;99664.97;3153209;28;20045;-72
2022/03/06 03:08:24;;;;;;;35.42;17.58;;;;;;;3.09;86.06;99665.97;3144693;28;20132;-73
2022/03/06 03:09:54;;;;;;;35.10;17.90;;;;;;;3.07;86.11;99690.88;3154124;28;20044;-71
2022/03/06 03:11:26;;;;;;;31.80;17.58;;;;;;;3.06;86.11;99681.47;3147465;28;20098;-71
2022/03/06 03:12:58;;;;;;;32.50;18.00;;;;;;;2.99;85.96;99670.44;3147847;28;20079;-71
2022/03/06 03:14:31;;;;;;;33.85;18.48;;;;;;;3.04;86.14;99667.75;3151847;28;20040;-72
2022/03/06 03:16:03;;;;;;;33.50;17.70;;;;;;;3.00;85.97;99658.41;3157631;28;20112;-71
2022/03/06 03:17:35;;;;;;;37.97;18.75;;;;;;;3.02;86.18;99678.09;3153876;28;20040;-72
2022/03/06 03:19:07;;;;;;;34.80;17.65;;;;;;;2.97;86.02;99649.00;3150704;28;20053;-71
2022/03/06 03:20:39;;;;;;;35.20;18.50;;;;;;;3.06;86.20;99669.44;3155664;28;20056;-71
2022/03/06 03:22:10;;;;;;;31.85;15.27;;;;;;;3.05;85.93;99675.47;3153886;28;20044;-72
2022/03/06 03:23:43;;;;;;;34.75;18.35;;;;;;;3.03;86.05;99673.78;3144837;28;20059;-72
2022/03/06 03:25:15;;;;;;;;;;;;;;;2.87;86.13;99686.91;3153405;28;20052;-70
2022/03/06 03:26:46;;;;;;;31.27;16.83;;;;;;;2.79;86.27;99664.75;3148930;28;19924;-70
2022/03/06 03:28:17;;;;;;;32.35;17.38;;;;;;;2.93;86.19;99681.66;3145953;28;20077;-70
2022/03/06 03:29:49;;;;;;;33.35;17.00;;;;;;;2.92;86.15;99679.09;3154909;28;20452;-70
2022/03/06 03:31:21;;;;;;;31.83;17.30;;;;;;;2.94;86.08;99675.63;3144736;28;20052;-71
2022/03/06 03:32:53;;;;;;;34.38;17.48;;;;;;;2.94;86.10;99678.19;3149423;28;20531;-72
2022/03/06 03:34:24;;;;;;;32.35;16.77;;;;;;;2.90;85.82;99697.16;3160728;28;20104;-72
2022/03/06 03:35:57;;;;;;;31.88;17.40;;;;;;;2.91;85.94;99683.41;3157122;28;20442;-73
2022/03/06 03:37:29;;;;;;;29.35;17.33;;;;;;;2.56;85.85;99629.09;3153838;28;20397;-72
2022/03/06 03:39:03;;;;;;;32.17;17.98;;;;;;;2.87;85.91;99670.59;3145585;28;20131;-73
2022/03/06 03:40:35;;;;;;;28.30;15.77;;;;;;;2.91;85.88;99696.25;3150186;28;20052;-73
2022/03/06 03:42:07;;;;;;;29.75;16.83;;;;;;;2.87;85.74;99679.19;3151519;28;20045;-71
2022/03/06 03:43:39;;;;;;;34.83;17.85;;;;;;;2.53;85.68;99634.28;3144724;28;20523;-71
2022/03/06 03:45:11;;;;;;;31.55;16.83;;;;;;;2.83;85.58;99692.94;3155047;28;20044;-71
2022/03/06 03:46:44;;;;;;;32.13;17.20;;;;;;;2.83;85.57;99689.53;3146078;28;20499;-71
2022/03/06 03:48:16;;;;;;;35.05;18.10;;;;;;;2.83;85.66;99684.38;3148795;28;20193;-71
2022/03/06 03:49:50;;;;;;;36.08;17.55;;;;;;;2.74;85.67;99681.06;3153585;28;20057;-71
2022/03/06 03:51:22;;;;;;;32.88;16.13;;;;;;;2.75;85.69;99702.50;3155912;28;20044;-71
2022/03/06 03:52:54;;;;;;;37.15;16.75;;;;;;;2.73;85.87;99688.84;3153804;28;20044;-71
2022/03/06 03:54:27;;;;;;;34.10;17.25;;;;;;;2.73;85.98;99693.97;3155997;28;20051;-71
2022/03/06 03:55:59;;;;;;;31.98;16.63;;;;;;;2.67;86.04;99688.94;3155778;28;20060;-72
2022/03/06 03:57:31;;;;;;;33.92;18.35;;;;;;;2.69;85.92;99695.75;3153768;28;20203;-71
2022/03/06 03:59:02;;;;;;;33.20;16.15;;;;;;;2.74;85.97;99685.38;3145011;28;20055;-70
2022/03/06 04:00:34;;;;;;;31.30;17.00;;;;;;;2.76;86.01;99682.78;3150192;28;20634;-70
2022/03/06 04:02:05;;;;;;;34.88;16.90;;;;;;;2.76;85.87;99701.66;3155842;28;20044;-69
2022/03/06 04:03:37;;;;;;;33.78;16.30;;;;;;;2.67;85.83;99692.34;3155782;28;20105;-69
2022/03/06 04:05:10;;;;;;;31.48;14.25;;;;;;;2.65;85.77;99698.38;3155388;28;20058;-71
2022/03/06 04:06:44;;;;;;;37.88;18.00;;;;;;;2.64;85.85;99696.69;3152172;28;20060;-72
2022/03/06 04:08:17;;;;;;;32.60;16.65;;;;;;;2.62;85.85;99693.28;3154821;28;20052;-72
2022/03/06 04:09:50;;;;;;;33.17;15.85;;;;;;;2.59;85.96;99711.31;3149686;28;20067;-72
2022/03/06 04:11:22;;;;;;;33.75;16.55;;;;;;;2.52;86.19;99690.00;3160169;28;20508;-72
2022/03/06 04:12:54;;;;;;;32.40;16.67;;;;;;;2.56;86.15;99686.50;3157632;28;20067;-72
2022/03/06 04:14:25;;;;;;;39.15;19.27;;;;;;;2.57;85.92;99692.47;3146823;28;20044;-72
2022/03/06 04:16:00;;;;;;;31.88;16.90;;;;;;;2.56;85.95;99690.78;3151942;28;20044;-73
2022/03/06 04:17:32;;;;;;;35.50;17.55;;;;;;;2.52;86.12;99705.41;3158713;28;20654;-72
2022/03/06 04:19:04;;;;;;;33.95;18.02;;;;;;;2.12;86.21;99625.44;3159204;28;20816;-71
2022/03/06 04:20:34;;;;;;;33.67;16.80;;;;;;;2.48;86.35;99704.63;3157100;28;20047;-70
2022/03/06 04:22:06;;;;;;;33.30;17.58;;;;;;;2.49;86.43;99702.91;3153908;28;20040;-70
2022/03/06 04:23:38;;;;;;;36.88;18.23;;;;;;;2.50;86.34;99695.16;3157679;28;20051;-70
2022/03/06 04:25:11;;;;;;;34.13;16.55;;;;;;;2.50;86.53;99700.28;3153280;28;20074;-71
2022/03/06 04:26:43;;;;;;;40.92;19.67;;;;;;;2.50;86.40;99691.72;3146795;28;20487;-71
2022/03/06 04:28:14;;;;;;;35.67;18.63;;;;;;;2.50;86.55;99684.88;3155698;28;20048;-71
2022/03/06 04:29:46;;;;;;;38.85;17.77;;;;;;;2.46;86.38;99683.22;3148946;28;20194;-71
2022/03/06 04:31:18;;;;;;;34.35;17.00;;;;;;;2.52;86.37;99699.44;3150057;28;20536;-71
2022/03/06 04:32:50;;;;;;;33.17;15.93;;;;;;;2.48;86.26;99694.34;3155278;28;20093;-71
2022/03/06 04:34:21;;;;;;;29.92;15.88;;;;;;;2.42;86.63;99702.09;3155890;28;20443;-71
2022/03/06 04:35:53;;;;;;;34.83;18.05;;;;;;;2.43;86.83;99702.97;3157602;28;20052;-71
2022/03/06 04:37:25;;;;;;;39.00;19.30;;;;;;;2.44;86.94;99694.38;3149333;28;20106;-70
2022/03/06 04:38:58;;;;;;;39.63;18.00;;;;;;;2.48;86.78;99703.75;3153568;28;20117;-70
2022/03/06 04:40:31;;;;;;;38.90;18.67;;;;;;;2.47;86.77;99702.91;3148231;28;20052;-70
2022/03/06 04:42:04;;;;;;;33.22;18.23;;;;;;;2.45;86.71;99701.22;3141616;28;20056;-70
2022/03/06 04:43:36;;;;;;;35.78;17.65;;;;;;;2.46;86.58;99695.22;3150465;28;20052;-70
2022/03/06 04:45:09;;;;;;;38.33;20.10;;;;;;;2.47;86.35;99697.75;3151491;28;20101;-71
2022/03/06 04:46:41;;;;;;;;;;;;;;;2.35;86.23;99695.38;3152417;28;20054;-70
2022/03/06 04:48:13;;;;;;;34.25;16.27;;;;;;;2.40;86.41;99706.44;3149447;28;19973;-71
2022/03/06 04:49:45;;;;;;;34.20;17.65;;;;;;;2.42;86.30;99701.25;3149303;28;20058;-69
2022/03/06 04:51:17;;;;;;;38.35;19.40;;;;;;;2.47;86.44;99696.91;3149786;28;20097;-71
2022/03/06 04:52:48;;;;;;;40.25;19.20;;;;;;;2.49;86.15;99688.31;3146307;28;20226;-71
2022/03/06 04:54:21;;;;;;;39.90;20.00;;;;;;;2.41;86.20;99685.00;3151737;28;20055;-71
2022/03/06 04:55:54;;;;;;;34.77;17.30;;;;;;;2.42;86.03;99712.38;3151812;28;20854;-71
2022/03/06 04:57:26;;;;;;;;;;;;;;;2.31;86.20;99700.53;3154324;28;20047;-71
2022/03/06 04:58:58;;;;;;;38.15;18.40;;;;;;;2.39;86.52;99698.72;3151497;28;20157;-72
2022/03/06 05:00:30;;;;;;;35.20;17.83;;;;;;;2.43;86.34;99701.25;3142459;28;20056;-71
2022/03/06 05:02:02;;;;;;;33.65;17.77;;;;;;;2.41;86.26;99699.56;3143979;28;20088;-69
2022/03/06 05:03:35;;;;;;;40.97;19.65;;;;;;;2.42;86.21;99703.81;3149212;28;20693;-70
2022/03/06 05:05:08;;;;;;;37.20;18.90;;;;;;;2.43;86.09;99713.25;3141212;28;20058;-71
2022/03/06 05:06:40;;;;;;;42.70;19.27;;;;;;;2.38;86.27;99703.03;3149222;28;20577;-71
2022/03/06 05:08:12;;;;;;;36.10;18.27;;;;;;;2.37;86.18;99719.34;3153292;28;20088;-72
2022/03/06 05:09:44;;;;;;;38.38;18.85;;;;;;;2.36;86.13;99709.06;3152072;28;20052;-72
2022/03/06 05:11:18;;;;;;;35.13;18.85;;;;;;;2.34;86.32;99714.22;3149445;28;20060;-72
2022/03/06 05:12:49;;;;;;;;;;;;;;;2.22;86.29;99716.97;3141462;28;20113;-72
2022/03/06 05:14:21;;;;;;;41.17;18.15;;;;;;;2.32;86.51;99712.53;3147447;28;19988;-72
2022/03/06 05:15:55;;;;;;;41.03;19.98;;;;;;;2.42;86.44;99724.38;3145531;28;20080;-72
2022/03/06 05:17:26;;;;;;;40.08;18.77;;;;;;;2.44;86.13;99720.09;3149581;28;20517;-72
2022/03/06 05:18:59;;;;;;;39.30;20.02;;;;;;;2.43;86.30;99710.69;3150184;28;20044;-72
2022/03/06 05:20:31;;;;;;;40.22;20.85;;;;;;;2.47;86.14;99713.19;3140040;28;20052;-72
2022/03/06 05:22:04;;;;;;;38.70;19.45;;;;;;;2.49;86.01;99719.16;3147764;28;20109;-72
2022/03/06 05:23:36;;;;;;;39.85;20.08;;;;;;;2.52;86.10;99722.56;3146469;28;20597;-72
2022/03/06 05:25:10;;;;;;;41.65;19.95;;;;;;;2.56;86.04;99719.06;3152487;28;20062;-72
2022/03/06 05:26:43;;;;;;;40.67;20.25;;;;;;;2.54;86.08;99713.09;3150737;28;20056;-72
2022/03/06 05:28:16;;;;;;;43.97;21.35;;;;;;;2.56;86.01;99714.78;3141119;28;20056;-73
2022/03/06 05:29:47;;;;;;;47.17;20.73;;;;;;;2.57;86.08;99713.91;3147114;28;20121;-72
2022/03/06 05:31:19;;;;;;;42.05;20.60;;;;;;;2.60;86.00;99718.16;3145107;28;20807;-72
2022/03/06 05:32:51;;;;;;;39.17;20.35;;;;;;;2.60;85.86;99723.28;3141814;28;20052;-72
2022/03/06 05:34:23;;;;;;;45.00;21.25;;;;;;;2.57;85.76;99715.63;3150796;28;20090;-73
2022/03/06 05:35:55;;;;;;;41.22;21.48;;;;;;;2.57;85.89;99725.91;3140651;28;20102;-73
2022/03/06 05:37:27;;;;;;;43.67;21.48;;;;;;;2.60;85.74;99718.16;3144417;28;20505;-72
2022/03/06 05:38:59;;;;;;;50.47;21.30;;;;;;;2.61;85.92;99723.28;3147474;28;20059;-72
2022/03/06 05:40:31;;;;;;;42.65;21.08;;;;;;;2.61;85.83;99715.56;3151821;28;20161;-72
2022/03/06 05:42:05;;;;;;;46.28;22.13;;;;;;;2.71;85.77;99726.56;3150994;28;20137;-72
2022/03/06 05:43:37;;;;;;;44.15;23.30;;;;;;;2.71;85.69;99717.13;3141307;28;20494;-72
2022/03/06 05:45:10;;;;;;;42.80;21.05;;;;;;;2.76;85.79;99726.50;3144577;28;20052;-72
2022/03/06 05:46:42;;;;;;;44.33;21.30;;;;;;;2.74;85.59;99717.06;3149313;28;20135;-72
2022/03/06 05:48:14;;;;;;;43.65;21.58;;;;;;;2.77;85.44;99728.19;3152934;28;20114;-72
2022/03/06 05:49:46;;;;;;;41.22;20.58;;;;;;;2.73;85.63;99725.69;3150650;28;20048;-71
2022/03/06 05:51:18;;;;;;;47.78;22.52;;;;;;;2.74;85.55;99736.81;3146464;28;20539;-71
2022/03/06 05:52:50;;;;;;;43.88;21.48;;;;;;;2.53;85.48;99690.84;3147896;28;20097;-71
2022/03/06 05:54:22;;;;;;;48.35;23.08;;;;;;;2.71;85.43;99731.72;3147433;28;20058;-72
2022/03/06 05:55:54;;;;;;;46.10;22.90;;;;;;;2.71;85.22;99736.84;3146828;28;20062;-71
2022/03/06 05:57:28;;;;;;;45.92;23.00;;;;;;;2.70;85.36;99738.56;3150881;28;20308;-71
2022/03/06 05:58:58;;;;;;;47.45;21.40;;;;;;;2.45;85.25;99704.63;3145147;28;20126;-72
2022/03/06 06:00:30;;;;;;;42.40;21.75;;;;;;;2.64;85.34;99736.09;3158864;28;20201;-72
2022/03/06 06:02:03;;;;;;;42.30;21.50;;;;;;;2.67;85.35;99740.34;3148564;28;20052;-72
2022/03/06 06:03:35;;;;;;;46.83;22.23;;;;;;;2.66;85.22;99736.06;3140446;28;20050;-73
2022/03/06 06:05:08;;;;;;;46.20;22.98;;;;;;;2.65;85.31;99734.38;3147254;28;20101;-73
2022/03/06 06:06:41;;;;;;;48.03;22.38;;;;;;;2.67;85.37;99748.06;3143361;28;20056;-73
2022/03/06 06:08:12;;;;;;;45.63;21.70;;;;;;;2.69;85.39;99729.19;3141922;28;20044;-73
2022/03/06 06:09:44;;;;;;;45.33;22.20;;;;;;;2.71;85.35;99736.84;3149444;28;20129;-73
2022/03/06 06:11:15;;;;;;;46.28;23.30;;;;;;;2.71;85.15;99736.84;3148102;28;20067;-73
2022/03/06 06:12:48;;;;;;;44.13;23.17;;;;;;;2.69;85.28;99731.75;3150183;28;20613;-73
2022/03/06 06:14:20;;;;;;;;;;;;;;;2.52;85.32;99731.13;3144916;28;20048;-73
2022/03/06 06:15:52;;;;;;;46.42;22.77;;;;;;;2.55;85.64;99723.38;3141169;28;19946;-73
2022/03/06 06:17:24;;;;;;;50.17;24.05;;;;;;;2.63;85.39;99733.53;3149298;28;20048;-73
2022/03/06 06:18:55;;;;;;;43.58;21.08;;;;;;;2.66;85.43;99738.63;3140094;28;20139;-72
2022/03/06 06:20:27;;;;;;;42.45;22.27;;;;;;;2.66;85.29;99741.19;3144899;28;20552;-73
2022/03/06 06:21:59;;;;;;;42.30;22.17;;;;;;;2.55;85.15;99740.53;3146367;28;20056;-72
2022/03/06 06:23:30;;;;;;;45.22;21.70;;;;;;;2.52;85.25;99738.84;3140671;28;20053;-72
2022/03/06 06:25:04;;;;;;;44.15;22.88;;;;;;;2.50;85.42;99743.97;3150299;28;20589;-72
2022/03/06 06:26:36;;;;;;;52.40;25.15;;;;;;;2.57;85.40;99751.59;3146353;28;20056;-72
2022/03/06 06:28:09;;;;;;;41.35;19.63;;;;;;;2.49;85.57;99729.44;3147636;28;20053;-72
2022/03/06 06:29:41;;;;;;;;;;;;;;;2.39;85.50;99755.28;3146122;28;20060;-73
2022/03/06 06:31:13;;;;;;;41.13;21.48;;;;;;;2.43;85.80;99736.38;3139526;28;19924;-73
2022/03/06 06:32:43;;;;;;;45.47;21.98;;;;;;;2.46;85.82;99732.06;3148017;28;20052;-73
2022/03/06 06:34:15;;;;;;;47.20;23.13;;;;;;;2.49;85.91;99737.16;3146510;28;20103;-73
2022/03/06 06:35:47;;;;;;;48.55;23.48;;;;;;;2.48;85.80;99724.31;3143359;28;20059;-73
2022/03/06 06:37:19;;;;;;;49.15;23.35;;;;;;;2.57;85.88;99738.75;3145808;28;20059;-73
2022/03/06 06:38:54;;;;;;;54.03;25.13;;;;;;;2.63;85.62;99743.81;3139544;28;20159;-74
2022/03/06 06:42:12;;;;;;;49.72;24.10;;;;;;;2.65;85.78;99750.63;3142236;28;20075;-72
2022/03/06 06:43:46;;;;;;;52.05;25.42;;;;;;;2.67;85.56;99766.06;3149791;28;20078;-71
2022/03/06 06:45:17;;;;;;;50.70;23.35;;;;;;;2.58;85.33;99745.63;3153633;28;20048;-72
2022/03/06 06:46:49;;;;;;;48.33;23.15;;;;;;;2.58;85.32;99755.91;3157195;28;20438;-71
2022/03/06 06:48:21;;;;;;;53.35;24.40;;;;;;;2.59;85.44;99752.44;3154537;28;20101;-71
2022/03/06 06:49:53;;;;;;;47.40;21.50;;;;;;;2.55;85.36;99754.22;3157263;28;20377;-72
2022/03/06 06:51:25;;;;;;;49.95;24.55;;;;;;;2.48;85.54;99753.47;3149520;28;20162;-72
2022/03/06 06:52:57;;;;;;;49.72;24.23;;;;;;;2.54;85.40;99755.06;3152340;28;20052;-71
2022/03/06 06:54:29;;;;;;;55.85;28.23;;;;;;;2.57;85.54;99761.91;3160288;28;20102;-71
2022/03/06 06:56:01;;;;;;;49.47;24.00;;;;;;;2.58;85.51;99756.75;3155866;28;20048;-71
2022/03/06 06:57:33;;;;;;;53.95;27.27;;;;;;;2.53;85.53;99743.09;3148581;28;20141;-71
2022/03/06 06:59:06;;;;;;;54.70;24.40;;;;;;;2.61;85.46;99758.44;3147002;28;20126;-71
2022/03/06 07:00:38;;;;;;;;;;;;;;;2.45;85.26;99761.19;3152709;28;20631;-73
2022/03/06 07:02:10;;;;;;;47.38;21.58;;;;;;;2.41;85.46;99744.09;3145206;28;19921;-70
2022/03/06 07:03:42;;;;;;;44.42;22.65;;;;;;;2.50;85.39;99756.84;3152230;28;20044;-70
2022/03/06 07:05:14;;;;;;;48.85;22.50;;;;;;;2.57;85.70;99757.59;3147485;28;20855;-70
2022/03/06 07:06:46;;;;;;;42.60;21.95;;;;;;;2.48;85.56;99745.75;3145813;28;20061;-71
2022/03/06 07:08:17;;;;;;;50.30;22.38;;;;;;;2.58;85.74;99755.91;3155642;28;20044;-70
2022/03/06 07:09:49;;;;;;;51.08;24.58;;;;;;;2.52;85.99;99736.25;3153898;28;20058;-70
2022/03/06 07:11:21;;;;;;;61.10;30.02;;;;;;;2.66;85.87;99746.34;3155244;28;20705;-70
2022/03/06 07:12:55;;;;;;;48.10;25.38;;;;;;;2.70;85.73;99758.31;3150144;28;20049;-70